createdAt,value
2018-12-05T00:00:12.833Z,518.9
2018-12-05T00:01:15.297Z,518.6
2018-12-05T00:02:17.437Z,518.8
2018-12-05T00:03:19.599Z,518.7
2018-12-05T00:04:22.037Z,518.5
2018-12-05T00:05:24.456Z,518.7
2018-12-05T00:06:26.880Z,519.1
2018-12-05T00:07:29.031Z,519.8
2018-12-05T00:08:31.456Z,519.9
2018-12-05T00:09:33.879Z,519.6
2018-12-05T00:10:36.039Z,519.8
2018-12-05T00:11:39.926Z,520
2018-12-05T00:12:42.346Z,520.3
2018-12-05T00:13:44.765Z,520.3
2018-12-05T00:14:46.920Z,520.5
2018-12-05T00:15:49.355Z,520.4
2018-12-05T00:16:51.794Z,520.6
2018-12-05T00:17:54.228Z,521
2018-12-05T00:18:56.645Z,521.1
2018-12-05T00:19:58.796Z,521.4
2018-12-05T00:21:00.954Z,521.2
2018-12-05T00:22:03.374Z,520.9
2018-12-05T00:23:05.797Z,521
2018-12-05T00:24:09.898Z,520.9
2018-12-05T00:25:12.057Z,520.8
2018-12-05T00:26:14.213Z,520.8
2018-12-05T00:27:16.638Z,520.6
2018-12-05T00:28:18.774Z,520.6
2018-12-05T00:29:21.200Z,520.5
2018-12-05T00:30:23.344Z,520.7
2018-12-05T00:31:25.209Z,520.5
2018-12-05T00:32:27.352Z,520.4
2018-12-05T00:33:29.779Z,520.8
2018-12-05T00:34:32.218Z,520.8
2018-12-05T00:35:34.647Z,520.7
2018-12-05T00:36:37.064Z,521.1
2018-12-05T00:37:39.506Z,521.2
2018-12-05T00:38:41.930Z,521.3
2018-12-05T00:39:44.089Z,521.2
2018-12-05T00:40:46.517Z,521
2018-12-05T00:41:48.948Z,521
2018-12-05T00:42:51.368Z,520.9
2018-12-05T00:43:53.804Z,520.8
2018-12-05T00:44:56.229Z,520.5
2018-12-05T00:45:58.374Z,520.8
2018-12-05T00:47:00.804Z,521.2
2018-12-05T00:48:03.237Z,521.3
2018-12-05T00:49:05.668Z,520.9
2018-12-05T00:50:08.095Z,521
2018-12-05T00:51:10.521Z,521.1
2018-12-05T00:52:12.649Z,521
2018-12-05T00:53:15.078Z,521.6
2018-12-05T00:54:17.236Z,521.8
2018-12-05T00:55:19.460Z,521.8
2018-12-05T00:56:21.600Z,521.9
2018-12-05T00:57:23.744Z,521.5
2018-12-05T00:58:26.182Z,521.6
2018-12-05T00:59:28.608Z,521.5
2018-12-05T01:00:31.070Z,521.8
2018-12-05T01:01:33.472Z,521.6
2018-12-05T01:02:35.602Z,521.5
2018-12-05T01:03:38.027Z,521.4
2018-12-05T01:04:40.458Z,521.8
2018-12-05T01:05:42.616Z,522
2018-12-05T01:06:45.046Z,522
2018-12-05T01:07:47.475Z,522.4
2018-12-05T01:08:49.640Z,522.4
2018-12-05T01:09:52.057Z,522
2018-12-05T01:10:54.231Z,522.1
2018-12-05T01:11:56.659Z,522
2018-12-05T01:12:59.085Z,522
2018-12-05T01:14:01.518Z,521.8
2018-12-05T01:15:03.958Z,522.2
2018-12-05T01:16:06.123Z,522.1
2018-12-05T01:17:08.256Z,522.5
2018-12-05T01:18:10.677Z,522.4
2018-12-05T01:19:13.107Z,522
2018-12-05T01:20:14.982Z,522
2018-12-05T01:21:17.406Z,521.8
2018-12-05T01:22:19.838Z,522.1
2018-12-05T01:23:22.285Z,521.6
2018-12-05T01:24:24.714Z,521.5
2018-12-05T01:25:26.878Z,521.5
2018-12-05T01:26:29.306Z,521.5
2018-12-05T01:27:31.785Z,521.5
2018-12-05T01:28:33.908Z,521.6
2018-12-05T01:29:36.342Z,521.6
2018-12-05T01:30:38.767Z,521.6
2018-12-05T01:31:41.194Z,522.1
2018-12-05T01:32:43.626Z,522
2018-12-05T01:33:45.774Z,522.3
2018-12-05T01:34:48.198Z,521.8
2018-12-05T01:35:50.617Z,521.8
2018-12-05T01:36:53.044Z,521.9
2018-12-05T01:37:55.487Z,521.9
2018-12-05T01:38:57.907Z,521.7
2018-12-05T01:40:00.336Z,521.4
2018-12-05T01:41:02.508Z,521.6
2018-12-05T01:42:04.932Z,521.5
2018-12-05T01:43:06.820Z,521.7
2018-12-05T01:44:08.428Z,521.5
2018-12-05T01:45:10.845Z,521.3
2018-12-05T01:46:13.262Z,521.6
2018-12-05T01:47:15.688Z,521.7
2018-12-05T01:48:17.843Z,521.5
2018-12-05T01:49:19.995Z,521.1
2018-12-05T01:50:22.140Z,521
2018-12-05T01:51:24.562Z,520.9
2018-12-05T01:52:26.983Z,520.7
2018-12-05T01:53:29.396Z,520.8
2018-12-05T01:54:31.870Z,521.3
2018-12-05T01:55:34.290Z,521.3
2018-12-05T01:56:36.437Z,521.5
2018-12-05T01:57:38.868Z,521.6
2018-12-05T01:58:41.297Z,521.4
2018-12-05T01:59:43.728Z,521.5
2018-12-05T02:00:45.884Z,521.9
2018-12-05T02:01:48.305Z,522.1
2018-12-05T02:02:50.455Z,521.6
2018-12-05T02:03:52.598Z,521.8
2018-12-05T02:04:55.029Z,521.9
2018-12-05T02:05:57.466Z,521.8
2018-12-05T02:06:59.919Z,521.9
2018-12-05T02:08:02.349Z,522
2018-12-05T02:09:04.769Z,521.8
2018-12-05T02:10:07.189Z,521.9
2018-12-05T02:11:09.616Z,522.5
2018-12-05T02:12:12.039Z,522.4
2018-12-05T02:13:14.472Z,522
2018-12-05T02:14:16.353Z,522.1
2018-12-05T02:15:18.519Z,522.2
2018-12-05T02:16:20.940Z,521.9
2018-12-05T02:17:23.363Z,521.7
2018-12-05T02:18:25.513Z,521.7
2018-12-05T02:19:27.977Z,521.7
2018-12-05T02:20:29.861Z,521.6
2018-12-05T02:21:31.993Z,520.9
2018-12-05T02:22:34.425Z,521.1
2018-12-05T02:23:36.651Z,520.7
2018-12-05T02:24:39.076Z,520.5
2018-12-05T02:25:41.499Z,520.5
2018-12-05T02:26:43.388Z,520.7
2018-12-05T02:27:45.551Z,520.9
2018-12-05T02:28:47.978Z,521.4
2018-12-05T02:29:49.871Z,521.7
2018-12-05T02:30:52.036Z,522.3
2018-12-05T02:31:54.167Z,522.8
2018-12-05T02:32:56.599Z,522.9
2018-12-05T02:33:58.749Z,523
2018-12-05T02:35:01.177Z,523.1
2018-12-05T02:36:03.617Z,523.4
2018-12-05T02:37:05.763Z,523.7
2018-12-05T02:38:08.185Z,523.9
2018-12-05T02:39:10.608Z,523.8
2018-12-05T02:40:13.037Z,524.4
2018-12-05T02:41:15.458Z,524.4
2018-12-05T02:42:17.876Z,524.7
2018-12-05T02:43:20.038Z,524.6
2018-12-05T02:44:22.219Z,524.5
2018-12-05T02:45:24.654Z,524.4
2018-12-05T02:46:26.815Z,524.9
2018-12-05T02:47:28.968Z,524.6
2018-12-05T02:48:31.132Z,524.7
2018-12-05T02:49:33.556Z,524.3
2018-12-05T02:50:35.999Z,524.6
2018-12-05T02:51:38.419Z,524.9
2018-12-05T02:52:40.841Z,524.9
2018-12-05T02:53:43.009Z,524.4
2018-12-05T02:54:45.422Z,524.4
2018-12-05T02:55:47.849Z,524.2
2018-12-05T02:56:50.289Z,524.3
2018-12-05T02:57:52.709Z,524.3
2018-12-05T02:58:55.143Z,524.1
2018-12-05T02:59:57.282Z,524.2
2018-12-05T03:00:59.704Z,523.9
2018-12-05T03:02:01.856Z,524.1
2018-12-05T03:03:04.276Z,523.9
2018-12-05T03:04:06.160Z,523.8
2018-12-05T03:05:09.724Z,523.6
2018-12-05T03:06:12.146Z,523.3
2018-12-05T03:07:14.568Z,523.4
2018-12-05T03:08:16.731Z,523.5
2018-12-05T03:09:18.889Z,523.3
2018-12-05T03:10:20.474Z,523.3
2018-12-05T03:11:22.362Z,523.1
2018-12-05T03:12:24.519Z,522.5
2018-12-05T03:13:26.939Z,522.7
2018-12-05T03:14:29.116Z,522.9
2018-12-05T03:15:31.527Z,522.3
2018-12-05T03:16:33.692Z,522
2018-12-05T03:17:36.119Z,522
2018-12-05T03:18:38.544Z,522
2018-12-05T03:19:41.181Z,521.9
2018-12-05T03:20:43.454Z,522
2018-12-05T03:21:45.886Z,521.7
2018-12-05T03:22:48.308Z,521.8
2018-12-05T03:23:50.466Z,521.7
2018-12-05T03:24:52.340Z,521.7
2018-12-05T03:25:54.779Z,521.9
2018-12-05T03:26:56.932Z,522.3
2018-12-05T03:27:59.352Z,522.2
2018-12-05T03:29:01.776Z,522.2
2018-12-05T03:30:03.668Z,522
2018-12-05T03:31:05.790Z,522.5
2018-12-05T03:32:08.227Z,522
2018-12-05T03:33:10.662Z,522.2
2018-12-05T03:34:12.788Z,522.1
2018-12-05T03:35:14.933Z,522.3
2018-12-05T03:36:16.531Z,522.5
2018-12-05T03:37:18.677Z,522.6
2018-12-05T03:38:20.827Z,522.5
2018-12-05T03:39:23.244Z,522.4
2018-12-05T03:40:25.678Z,522.9
2018-12-05T03:41:28.118Z,523
2018-12-05T03:42:30.550Z,523.1
2018-12-05T03:43:32.975Z,523.3
2018-12-05T03:44:35.405Z,523.5
2018-12-05T03:45:37.836Z,523.5
2018-12-05T03:46:39.992Z,523.6
2018-12-05T03:47:42.429Z,523.5
2018-12-05T03:48:44.583Z,523.8
2018-12-05T03:49:46.751Z,523.8
2018-12-05T03:50:48.712Z,523.5
2018-12-05T03:51:50.879Z,523.5
2018-12-05T03:52:53.023Z,523.6
2018-12-05T03:53:55.452Z,523.2
2018-12-05T03:54:57.326Z,523.4
2018-12-05T03:55:59.481Z,523.2
2018-12-05T03:57:01.916Z,523.3
2018-12-05T03:58:04.380Z,523
2018-12-05T03:59:06.537Z,522.7
2018-12-05T04:00:08.409Z,522.9
2018-12-05T04:01:10.845Z,522.8
2018-12-05T04:02:13.269Z,523
2018-12-05T04:03:15.692Z,522.7
2018-12-05T04:04:18.121Z,523.3
2018-12-05T04:05:20.069Z,523.1
2018-12-05T04:06:22.491Z,523
2018-12-05T04:07:24.923Z,523.3
2018-12-05T04:08:27.044Z,523.1
2018-12-05T04:09:29.478Z,523
2018-12-05T04:10:31.894Z,523.3
2018-12-05T04:11:34.045Z,523.3
2018-12-05T04:13:40.921Z,523.7
2018-12-05T04:14:43.345Z,523.8
2018-12-05T04:15:45.808Z,523.4
2018-12-05T04:16:47.944Z,523.4
2018-12-05T04:17:49.842Z,523.4
2018-12-05T04:18:51.994Z,523.3
2018-12-05T04:19:54.152Z,523.2
2018-12-05T04:20:56.769Z,522.7
2018-12-05T04:21:58.914Z,522.4
2018-12-05T04:23:01.347Z,522.2
2018-12-05T04:24:03.499Z,521.2
2018-12-05T04:25:05.669Z,521.5
2018-12-05T04:26:07.807Z,522.1
2018-12-05T04:27:10.235Z,522.1
2018-12-05T04:28:12.672Z,522.2
2018-12-05T04:29:15.098Z,522.5
2018-12-05T04:30:17.529Z,522.6
2018-12-05T04:31:19.963Z,521.9
2018-12-05T04:32:22.085Z,522.3
2018-12-05T04:33:24.529Z,522.3
2018-12-05T04:34:26.683Z,522.5
2018-12-05T04:35:29.109Z,522.5
2018-12-05T04:36:31.540Z,522.6
2018-12-05T04:37:33.975Z,522.2
2018-12-05T04:38:36.399Z,522.1
2018-12-05T04:39:38.552Z,521.7
2018-12-05T04:40:41.007Z,521.9
2018-12-05T04:41:43.450Z,521.8
2018-12-05T04:42:45.592Z,522.4
2018-12-05T04:43:47.473Z,522.4
2018-12-05T04:44:49.907Z,522.3
2018-12-05T04:45:51.788Z,522.1
2018-12-05T04:46:54.208Z,522
2018-12-05T04:47:56.352Z,522
2018-12-05T04:48:58.771Z,522.2
2018-12-05T04:50:01.227Z,521.8
2018-12-05T04:51:03.380Z,521.9
2018-12-05T04:52:05.249Z,521.8
2018-12-05T04:53:07.690Z,521.9
2018-12-05T04:54:09.809Z,521.9
2018-12-05T04:55:11.951Z,521.9
2018-12-05T04:56:14.380Z,522
2018-12-05T04:57:16.805Z,522.1
2018-12-05T04:58:19.556Z,521.8
2018-12-05T04:59:22.027Z,521.7
2018-12-05T05:00:24.459Z,522.4
2018-12-05T05:01:26.323Z,521.7
2018-12-05T05:02:28.783Z,521.9
2018-12-05T05:03:31.230Z,521.6
2018-12-05T05:04:33.314Z,521.6
2018-12-05T05:05:35.835Z,521.5
2018-12-05T05:07:43.270Z,521.4
2018-12-05T05:08:45.436Z,521.4
2018-12-05T05:09:47.340Z,521.5
2018-12-05T05:10:49.769Z,522
2018-12-05T05:11:51.636Z,521.3
2018-12-05T05:12:54.068Z,521.4
2018-12-05T05:13:56.496Z,521.5
2018-12-05T05:14:58.931Z,521
2018-12-05T05:16:01.369Z,520.8
2018-12-05T05:17:03.819Z,521
2018-12-05T05:18:05.979Z,520.5
2018-12-05T05:19:08.405Z,520.6
2018-12-05T05:20:12.499Z,520.7
2018-12-05T05:21:14.639Z,520.9
2018-12-05T05:22:31.462Z,521
2018-12-05T05:23:33.615Z,521.1
2018-12-05T05:24:36.043Z,521.3
2018-12-05T05:25:38.463Z,521.5
2018-12-05T05:26:40.339Z,521.2
2018-12-05T05:28:47.736Z,521.2
2018-12-05T05:29:50.156Z,521.7
2018-12-05T05:30:52.599Z,521.7
2018-12-05T05:31:55.027Z,522.1
2018-12-05T05:32:57.450Z,521.9
2018-12-05T05:33:59.611Z,521.8
2018-12-05T05:35:02.035Z,521.6
2018-12-05T05:36:04.460Z,521.4
2018-12-05T05:37:06.599Z,521.4
2018-12-05T05:38:09.027Z,521.3
2018-12-05T05:39:11.459Z,521.7
2018-12-05T05:40:13.892Z,521.5
2018-12-05T05:41:16.319Z,521.5
2018-12-05T05:42:18.748Z,521.7
2018-12-05T05:43:20.899Z,521.9
2018-12-05T05:44:23.054Z,521.3
2018-12-05T05:45:25.206Z,521.8
2018-12-05T05:46:27.086Z,521.8
2018-12-05T05:47:29.572Z,521.6
2018-12-05T05:48:32.080Z,522
2018-12-05T05:49:34.228Z,522
2018-12-05T05:50:36.364Z,522.1
2018-12-05T05:51:38.783Z,521.9
2018-12-05T05:52:40.676Z,522.3
2018-12-05T05:53:42.835Z,522.2
2018-12-05T05:54:44.986Z,522
2018-12-05T05:55:47.409Z,522.2
2018-12-05T05:56:49.546Z,522.2
2018-12-05T05:57:51.972Z,522.3
2018-12-05T05:58:54.394Z,522.5
2018-12-05T05:59:56.276Z,522
2018-12-05T06:00:58.709Z,522.2
2018-12-05T06:02:00.576Z,522.3
2018-12-05T06:03:02.783Z,522.5
2018-12-05T06:04:04.940Z,522.3
2018-12-05T06:05:07.370Z,522.6
2018-12-05T06:06:09.508Z,522.6
2018-12-05T06:07:11.650Z,522.6
2018-12-05T06:08:13.810Z,522.7
2018-12-05T06:09:16.239Z,522.8
2018-12-05T06:10:18.796Z,522.4
2018-12-05T06:11:21.239Z,522.3
2018-12-05T06:12:23.395Z,522.4
2018-12-05T06:13:25.540Z,522.4
2018-12-05T06:14:28.071Z,521.9
2018-12-05T06:15:30.496Z,522.2
2018-12-05T06:16:32.921Z,522.1
2018-12-05T06:17:35.345Z,522.1
2018-12-05T06:18:37.493Z,522.1
2018-12-05T06:19:39.905Z,522.3
2018-12-05T06:20:42.069Z,522.1
2018-12-05T06:21:44.204Z,522
2018-12-05T06:22:46.339Z,521.5
2018-12-05T06:23:48.760Z,521.5
2018-12-05T06:24:51.187Z,521.5
2018-12-05T06:25:53.361Z,521.3
2018-12-05T06:26:55.791Z,521.4
2018-12-05T06:27:58.213Z,521.2
2018-12-05T06:29:00.636Z,521.1
2018-12-05T06:30:03.181Z,520.5
2018-12-05T06:31:05.334Z,519.9
2018-12-05T06:32:07.234Z,520.2
2018-12-05T06:33:09.390Z,519.9
2018-12-05T06:34:11.302Z,519.6
2018-12-05T06:35:13.461Z,519.3
2018-12-05T06:36:15.900Z,519.3
2018-12-05T06:37:17.779Z,519.3
2018-12-05T06:38:20.229Z,519.5
2018-12-05T06:39:22.387Z,519.2
2018-12-05T06:40:24.540Z,519.1
2018-12-05T06:41:26.975Z,518.6
2018-12-05T06:42:29.120Z,518.7
2018-12-05T06:43:31.291Z,518.7
2018-12-05T06:44:33.740Z,518.6
2018-12-05T06:45:36.160Z,518.4
2018-12-05T06:46:38.586Z,518.3
2018-12-05T06:47:41.019Z,518.2
2018-12-05T06:48:43.161Z,518.1
2018-12-05T06:49:45.585Z,518.1
2018-12-05T06:50:47.737Z,518
2018-12-05T06:51:50.155Z,517.8
2018-12-05T06:52:52.578Z,517.8
2018-12-05T06:53:54.729Z,517.9
2018-12-05T06:54:56.342Z,518.2
2018-12-05T06:55:58.767Z,518.4
2018-12-05T06:57:01.191Z,518
2018-12-05T06:58:03.340Z,518.3
2018-12-05T06:59:05.537Z,518.1
2018-12-05T07:00:09.637Z,518.1
2018-12-05T07:01:12.091Z,517.8
2018-12-05T07:02:14.528Z,517.6
2018-12-05T07:03:16.665Z,517.8
2018-12-05T07:04:18.831Z,517.7
2018-12-05T07:05:20.976Z,517.8
2018-12-05T07:06:23.393Z,517.8
2018-12-05T07:07:25.825Z,517.9
2018-12-05T07:08:28.245Z,518
2018-12-05T07:09:30.111Z,517.9
2018-12-05T07:10:31.977Z,517.6
2018-12-05T07:11:34.413Z,517.7
2018-12-05T07:12:36.578Z,517.3
2018-12-05T07:13:39.036Z,517.2
2018-12-05T07:14:41.187Z,516.8
2018-12-05T07:15:43.371Z,516.4
2018-12-05T07:16:45.795Z,516.3
2018-12-05T07:17:48.217Z,516.2
2018-12-05T07:18:50.349Z,515.9
2018-12-05T07:19:52.516Z,516.1
2018-12-05T07:20:54.686Z,515.9
2018-12-05T07:21:56.835Z,515.8
2018-12-05T07:22:59.278Z,516.2
2018-12-05T07:24:01.418Z,516.1
2018-12-05T07:25:03.846Z,516.3
2018-12-05T07:26:06.279Z,516.1
2018-12-05T07:27:08.699Z,516.3
2018-12-05T07:28:11.130Z,516.2
2018-12-05T07:29:13.559Z,516.3
2018-12-05T07:30:16.003Z,516.3
2018-12-05T07:31:18.432Z,515.7
2018-12-05T07:32:20.855Z,516.3
2018-12-05T07:33:23.009Z,515.8
2018-12-05T07:34:24.635Z,515.7
2018-12-05T07:35:27.081Z,515.9
2018-12-05T07:36:29.997Z,516.1
2018-12-05T07:37:32.159Z,516.4
2018-12-05T07:38:34.319Z,516.2
2018-12-05T07:39:36.197Z,515.7
2018-12-05T07:40:38.638Z,516
2018-12-05T07:41:41.068Z,515.5
2018-12-05T07:42:44.989Z,515.6
2018-12-05T07:43:47.143Z,515.6
2018-12-05T07:44:49.571Z,515.9
2018-12-05T07:45:52.069Z,515.6
2018-12-05T07:46:54.526Z,515.2
2018-12-05T07:47:56.991Z,514.5
2018-12-05T07:48:59.137Z,514.6
2018-12-05T07:50:01.563Z,514
2018-12-05T07:51:03.712Z,514.3
2018-12-05T07:52:06.134Z,513.8
2018-12-05T07:53:08.584Z,513.8
2018-12-05T07:54:11.016Z,513.8
2018-12-05T07:55:13.177Z,513.9
2018-12-05T07:56:15.629Z,513.7
2018-12-05T07:57:17.529Z,514.4
2018-12-05T07:58:19.705Z,514.1
2018-12-05T07:59:22.129Z,514.3
2018-12-05T08:00:24.298Z,514.2
2018-12-05T08:01:26.729Z,514.3
2018-12-05T08:02:28.886Z,514.4
2018-12-05T08:03:31.035Z,514.9
2018-12-05T08:04:33.454Z,515.1
2018-12-05T08:05:35.885Z,515.1
2018-12-05T08:06:37.773Z,515.9
2018-12-05T08:07:39.925Z,516.5
2018-12-05T08:08:41.798Z,516.4
2018-12-05T08:09:44.224Z,516.4
2018-12-05T08:10:46.675Z,516.5
2018-12-05T08:11:49.121Z,516
2018-12-05T08:12:51.560Z,515.9
2018-12-05T08:13:53.722Z,516.2
2018-12-05T08:14:55.607Z,516.2
2018-12-05T08:15:58.028Z,516.1
2018-12-05T08:17:00.200Z,516
2018-12-05T08:18:01.811Z,516.1
2018-12-05T08:19:04.245Z,516
2018-12-05T08:20:06.407Z,516.2
2018-12-05T08:21:08.283Z,516.1
2018-12-05T08:22:10.696Z,516.6
2018-12-05T08:23:12.565Z,516.6
2018-12-05T08:24:14.985Z,516.3
2018-12-05T08:25:17.409Z,516.4
2018-12-05T08:26:19.291Z,516.7
2018-12-05T08:27:21.452Z,516.4
2018-12-05T08:28:23.603Z,516.8
2018-12-05T08:29:26.041Z,515.9
2018-12-05T08:30:28.502Z,516
2018-12-05T08:31:30.950Z,515.8
2018-12-05T08:32:33.405Z,515.9
2018-12-05T08:33:35.029Z,515.7
2018-12-05T08:34:37.461Z,516.1
2018-12-05T08:35:39.611Z,516.1
2018-12-05T08:36:42.049Z,516.4
2018-12-05T08:37:44.271Z,516.3
2018-12-05T08:38:46.419Z,516.3
2018-12-05T08:39:48.847Z,516.1
2018-12-05T08:40:51.277Z,516
2018-12-05T08:41:53.414Z,516.4
2018-12-05T08:42:55.572Z,516.3
2018-12-05T08:43:58.014Z,516.1
2018-12-05T08:45:00.449Z,516.6
2018-12-05T08:46:02.913Z,516.6
2018-12-05T08:47:05.334Z,517
2018-12-05T08:48:07.755Z,517.1
2018-12-05T08:49:09.912Z,516.7
2018-12-05T08:50:12.339Z,515.9
2018-12-05T08:51:14.753Z,516.6
2018-12-05T08:52:16.618Z,516.2
2018-12-05T08:53:18.770Z,516.9
2018-12-05T08:54:23.234Z,517
2018-12-05T08:55:25.402Z,517.6
2018-12-05T08:56:27.827Z,516.9
2018-12-05T08:57:29.972Z,517.3
2018-12-05T08:58:32.413Z,517.8
2018-12-05T08:59:34.851Z,517.8
2018-12-05T09:00:37.283Z,518.1
2018-12-05T09:01:39.720Z,517.7
2018-12-05T09:02:41.864Z,517.7
2018-12-05T09:03:44.296Z,517.7
2018-12-05T09:04:46.452Z,517.6
2018-12-05T09:05:48.931Z,517.1
2018-12-05T09:06:51.093Z,516.8
2018-12-05T09:07:52.966Z,517.2
2018-12-05T09:08:55.392Z,517
2018-12-05T09:09:57.813Z,517.3
2018-12-05T09:10:59.948Z,516.9
2018-12-05T09:12:02.121Z,516.4
2018-12-05T09:13:04.273Z,516.5
2018-12-05T09:14:06.513Z,516.4
2018-12-05T09:15:09.230Z,516.8
2018-12-05T09:16:11.667Z,516.5
2018-12-05T09:17:14.089Z,516.2
2018-12-05T09:18:15.973Z,516.6
2018-12-05T09:19:18.136Z,516
2018-12-05T09:20:20.019Z,516.2
2018-12-05T09:21:22.227Z,516.1
2018-12-05T09:22:24.403Z,515.8
2018-12-05T09:23:26.560Z,516.1
2018-12-05T09:24:28.978Z,516.4
2018-12-05T09:25:31.124Z,516.1
2018-12-05T09:26:33.278Z,516.1
2018-12-05T09:27:35.701Z,516.2
2018-12-05T09:28:38.156Z,516
2018-12-05T09:29:40.568Z,516.5
2018-12-05T09:30:42.720Z,516.9
2018-12-05T09:31:45.218Z,517.3
2018-12-05T09:32:47.628Z,517.6
2018-12-05T09:33:49.782Z,517.2
2018-12-05T09:34:51.951Z,516.9
2018-12-05T09:35:53.825Z,516.6
2018-12-05T09:36:55.700Z,516.8
2018-12-05T09:37:57.569Z,516.6
2018-12-05T09:38:59.720Z,516.5
2018-12-05T09:40:01.852Z,516.7
2018-12-05T09:41:03.713Z,517
2018-12-05T09:42:05.869Z,517
2018-12-05T09:43:08.298Z,517.1
2018-12-05T09:44:10.448Z,517.3
2018-12-05T09:45:12.610Z,517.5
2018-12-05T09:46:14.770Z,517.5
2018-12-05T09:47:18.057Z,517.7
2018-12-05T09:48:20.479Z,517.8
2018-12-05T09:49:22.646Z,517.6
2018-12-05T09:50:25.086Z,517.7
2018-12-05T09:51:27.521Z,517.5
2018-12-05T09:52:29.961Z,517.6
2018-12-05T09:53:33.949Z,517.7
2018-12-05T09:54:36.375Z,517.9
2018-12-05T09:55:38.792Z,517.5
2018-12-05T09:56:40.957Z,517.7
2018-12-05T09:57:43.098Z,517.7
2018-12-05T09:58:45.228Z,518
2018-12-05T09:59:47.355Z,518.4
2018-12-05T10:00:49.535Z,518.6
2018-12-05T10:01:51.958Z,518.9
2018-12-05T10:02:54.131Z,518.2
2018-12-05T10:03:56.631Z,518.6
2018-12-05T10:04:59.069Z,518.7
2018-12-05T10:06:01.501Z,518.6
2018-12-05T10:07:03.924Z,518.7
2018-12-05T10:08:06.058Z,519.3
2018-12-05T10:09:08.207Z,519.2
2018-12-05T10:10:10.628Z,519.6
2018-12-05T10:11:13.064Z,519.3
2018-12-05T10:12:15.509Z,519.2
2018-12-05T10:13:17.972Z,519.7
2018-12-05T10:14:20.408Z,519.4
2018-12-05T10:15:22.835Z,519.4
2018-12-05T10:16:25.002Z,519.3
2018-12-05T10:17:27.161Z,519.3
2018-12-05T10:18:29.604Z,519.4
2018-12-05T10:19:31.756Z,519.1
2018-12-05T10:20:33.627Z,519.2
2018-12-05T10:21:35.760Z,519.1
2018-12-05T10:22:38.183Z,519.2
2018-12-05T10:23:40.068Z,519.4
2018-12-05T10:24:42.494Z,519.1
2018-12-05T10:25:44.673Z,519
2018-12-05T10:26:47.156Z,519.2
2018-12-05T10:27:49.579Z,519.2
2018-12-05T10:28:51.738Z,518.9
2018-12-05T10:29:54.162Z,519.4
2018-12-05T10:30:56.336Z,519.6
2018-12-05T10:31:58.760Z,519.9
2018-12-05T10:33:01.209Z,520
2018-12-05T10:34:03.637Z,519.6
2018-12-05T10:35:06.066Z,520.3
2018-12-05T10:36:08.219Z,520.2
2018-12-05T10:37:10.639Z,520.2
2018-12-05T10:38:12.785Z,520.4
2018-12-05T10:39:14.690Z,520.5
2018-12-05T10:40:16.594Z,520.9
2018-12-05T10:41:18.749Z,520.9
2018-12-05T10:42:21.195Z,521.2
2018-12-05T10:43:23.088Z,520.7
2018-12-05T10:44:24.979Z,521
2018-12-05T10:45:27.150Z,521.1
2018-12-05T10:46:29.300Z,521.5
2018-12-05T10:47:31.468Z,522.4
2018-12-05T10:48:33.897Z,521.8
2018-12-05T10:49:36.077Z,522.3
2018-12-05T10:50:38.219Z,522.3
2018-12-05T10:51:40.389Z,522.5
2018-12-05T10:52:42.825Z,522.1
2018-12-05T10:53:44.965Z,522.5
2018-12-05T10:54:47.389Z,522.7
2018-12-05T10:55:49.813Z,523
2018-12-05T10:56:52.246Z,523.6
2018-12-05T10:57:54.690Z,523.2
2018-12-05T10:58:57.115Z,523.4
2018-12-05T10:59:59.274Z,523.4
2018-12-05T11:01:01.716Z,523.4
2018-12-05T11:02:03.858Z,523.5
2018-12-05T11:03:06.016Z,523.3
2018-12-05T11:04:08.442Z,522.9
2018-12-05T11:05:10.876Z,523.2
2018-12-05T11:06:13.004Z,523.2
2018-12-05T11:07:14.608Z,523.7
2018-12-05T11:08:17.036Z,523.7
2018-12-05T11:09:19.469Z,523.7
2018-12-05T11:10:21.619Z,523.3
2018-12-05T11:11:24.050Z,523.3
2018-12-05T11:12:26.473Z,523.1
2018-12-05T11:13:28.689Z,522.9
2018-12-05T11:14:31.114Z,522.9
2018-12-05T11:15:33.543Z,523.1
2018-12-05T11:16:35.989Z,523.3
2018-12-05T11:17:38.415Z,523.2
2018-12-05T11:18:40.844Z,523.5
2018-12-05T11:19:42.985Z,524.2
2018-12-05T11:20:45.116Z,524.2
2018-12-05T11:22:52.527Z,524.1
2018-12-05T11:23:54.970Z,524.2
2018-12-05T11:24:57.394Z,524.3
2018-12-05T11:25:59.570Z,524.1
2018-12-05T11:27:02.017Z,524.5
2018-12-05T11:28:04.444Z,524.4
2018-12-05T11:29:06.866Z,524.5
2018-12-05T11:30:09.287Z,525.5
2018-12-05T11:31:11.715Z,525.5
2018-12-05T11:32:14.150Z,525.9
2018-12-05T11:33:16.289Z,526
2018-12-05T11:34:18.712Z,525.7
2018-12-05T11:35:20.859Z,525.4
2018-12-05T11:36:22.988Z,525.5
2018-12-05T11:37:25.127Z,525.1
2018-12-05T11:38:27.290Z,525.1
2018-12-05T11:39:29.191Z,524.9
2018-12-05T11:40:31.622Z,525.3
2018-12-05T11:41:34.400Z,525.4
2018-12-05T11:42:36.832Z,525.6
2018-12-05T11:43:38.998Z,525.6
2018-12-05T11:44:41.419Z,525.6
2018-12-05T11:45:43.839Z,526
2018-12-05T11:46:45.990Z,526.5
2018-12-05T11:47:48.437Z,526.7
2018-12-05T11:48:50.595Z,526.8
2018-12-05T11:49:53.074Z,527.4
2018-12-05T11:50:55.267Z,527.8
2018-12-05T11:51:57.698Z,527.7
2018-12-05T11:53:00.138Z,528
2018-12-05T11:54:01.763Z,527.5
2018-12-05T11:55:03.910Z,527.2
2018-12-05T11:56:06.343Z,527.4
2018-12-05T11:57:08.500Z,527.8
2018-12-05T11:58:10.923Z,527.7
2018-12-05T11:59:13.347Z,528
2018-12-05T12:00:15.526Z,528.3
2018-12-05T12:01:17.416Z,528.1
2018-12-05T12:03:24.559Z,527.4
2018-12-05T12:04:27.001Z,527.6
2018-12-05T12:05:29.436Z,527.7
2018-12-05T12:06:31.862Z,528.1
2018-12-05T12:07:34.289Z,528.3
2018-12-05T12:08:36.436Z,527.9
2018-12-05T12:09:38.589Z,527.8
2018-12-05T12:10:40.769Z,527.9
2018-12-05T12:11:42.929Z,528.3
2018-12-05T12:12:45.363Z,528.4
2018-12-05T12:13:47.513Z,528.2
2018-12-05T12:14:49.661Z,528.5
2018-12-05T12:15:51.795Z,528.6
2018-12-05T12:16:53.949Z,528.9
2018-12-05T12:17:55.834Z,528.6
2018-12-05T12:18:58.259Z,529.1
2018-12-05T12:20:00.413Z,529.3
2018-12-05T12:21:02.583Z,529.2
2018-12-05T12:22:04.726Z,529.4
2018-12-05T12:23:07.148Z,529.1
2018-12-05T12:24:09.575Z,529.4
2018-12-05T12:25:11.464Z,529.4
2018-12-05T12:26:13.086Z,529.4
2018-12-05T12:27:15.531Z,529.6
2018-12-05T12:28:17.971Z,529.5
2018-12-05T12:29:20.147Z,529.8
2018-12-05T12:30:22.587Z,530.2
2018-12-05T12:31:25.041Z,530.3
2018-12-05T12:32:27.209Z,530.6
2018-12-05T12:33:29.633Z,530.4
2018-12-05T12:34:32.080Z,530.5
2018-12-05T12:35:34.237Z,531.2
2018-12-05T12:36:36.409Z,531.2
2018-12-05T12:37:38.278Z,530.9
2018-12-05T12:38:42.267Z,531.3
2018-12-05T12:39:44.689Z,531.2
2018-12-05T12:40:46.851Z,530.8
2018-12-05T12:41:49.288Z,531
2018-12-05T12:42:51.721Z,530.8
2018-12-05T12:43:53.869Z,531.2
2018-12-05T12:44:56.359Z,531.2
2018-12-05T12:45:58.786Z,531.3
2018-12-05T12:47:01.232Z,531.4
2018-12-05T12:48:03.669Z,532
2018-12-05T12:49:05.545Z,532.1
2018-12-05T12:50:07.989Z,532.1
2018-12-05T12:51:10.416Z,532.1
2018-12-05T12:52:12.848Z,532.2
2018-12-05T12:53:15.268Z,532.8
2018-12-05T12:54:17.639Z,533.4
2018-12-05T12:55:20.076Z,533.7
2018-12-05T12:56:22.496Z,533.5
2018-12-05T12:57:24.658Z,533.7
2018-12-05T12:58:27.088Z,533.4
2018-12-05T12:59:28.969Z,533.8
2018-12-05T13:00:31.111Z,533.8
2018-12-05T13:01:33.537Z,533.5
2018-12-05T13:02:35.972Z,533.5
2018-12-05T13:03:38.096Z,533.5
2018-12-05T13:04:40.527Z,533.8
2018-12-05T13:05:42.668Z,533.7
2018-12-05T13:06:45.099Z,533.3
2018-12-05T13:07:47.236Z,533.9
2018-12-05T13:08:49.125Z,534.1
2018-12-05T13:09:51.560Z,533.8
2018-12-05T13:10:53.995Z,533.6
2018-12-05T13:11:56.420Z,534.2
2018-12-05T13:12:58.584Z,534.2
2018-12-05T13:14:01.008Z,534.2
2018-12-05T13:15:03.450Z,534.4
2018-12-05T13:16:05.878Z,534.5
2018-12-05T13:17:08.322Z,534.5
2018-12-05T13:18:10.485Z,534.3
2018-12-05T13:19:12.917Z,534
2018-12-05T13:20:15.055Z,533.9
2018-12-05T13:21:17.495Z,534.4
2018-12-05T13:22:19.914Z,534
2018-12-05T13:23:22.059Z,534.8
2018-12-05T13:24:24.482Z,535.3
2018-12-05T13:25:26.432Z,535.3
2018-12-05T13:26:28.885Z,535.1
2018-12-05T13:27:31.327Z,535.1
2018-12-05T13:28:33.768Z,535.6
2018-12-05T13:29:36.196Z,535.2
2018-12-05T13:30:38.378Z,535.4
2018-12-05T13:31:40.817Z,535.4
2018-12-05T13:32:43.250Z,535.4